createdAt,value
2017-05-20T00:00:47.734Z,99.99
2017-05-20T00:02:09.023Z,99.99
2017-05-20T00:03:31.182Z,99.99
2017-05-20T00:04:53.591Z,99.99
2017-05-20T00:06:15.731Z,99.99
2017-05-20T00:07:37.341Z,99.99
2017-05-20T00:08:59.232Z,99.99
2017-05-20T00:10:21.688Z,99.99
2017-05-20T00:11:43.857Z,99.99
2017-05-20T00:13:05.169Z,99.99
2017-05-20T00:14:27.385Z,99.99
2017-05-20T00:15:50.312Z,99.99
2017-05-20T00:17:12.157Z,99.99
2017-05-20T00:18:34.041Z,99.99
2017-05-20T00:19:55.599Z,99.99
2017-05-20T00:21:18.375Z,99.99
2017-05-20T00:22:40.512Z,99.99
2017-05-20T00:24:02.663Z,99.99
2017-05-20T00:25:24.843Z,99.99
2017-05-20T00:26:46.991Z,99.99
2017-05-20T00:28:09.466Z,99.99
2017-05-20T00:29:30.995Z,99.99
2017-05-20T00:30:53.471Z,99.99
2017-05-20T00:32:16.200Z,99.99
2017-05-20T00:33:38.139Z,99.99
2017-05-20T00:34:59.736Z,99.99
2017-05-20T00:36:21.240Z,99.99
2017-05-20T00:37:43.811Z,99.99
2017-05-20T00:39:05.950Z,99.99
2017-05-20T00:40:27.775Z,99.99
2017-05-20T00:41:49.940Z,99.99
2017-05-20T00:43:11.816Z,99.99
2017-05-20T00:44:33.635Z,99.99
2017-05-20T00:45:55.456Z,99.99
2017-05-20T00:47:17.630Z,99.99
2017-05-20T00:48:39.770Z,99.99
2017-05-20T00:50:01.950Z,99.99
2017-05-20T00:51:23.469Z,99.99
2017-05-20T00:52:45.339Z,99.99
2017-05-20T00:54:06.978Z,99.99
2017-05-20T00:55:29.130Z,99.99
2017-05-20T00:56:50.342Z,99.99
2017-05-20T00:58:12.169Z,99.99
2017-05-20T00:59:34.321Z,99.99
2017-05-20T01:00:55.892Z,99.99
2017-05-20T01:02:18.048Z,99.99
2017-05-20T01:03:39.909Z,99.99
2017-05-20T01:05:02.135Z,99.99
2017-05-20T01:06:24.361Z,99.99
2017-05-20T01:07:45.981Z,99.99
2017-05-20T01:09:07.622Z,99.99
2017-05-20T01:10:28.918Z,99.99
2017-05-20T01:11:51.162Z,99.99
2017-05-20T01:13:13.631Z,99.99
2017-05-20T01:14:35.779Z,99.99
2017-05-20T01:15:58.020Z,99.99
2017-05-20T01:17:20.487Z,99.99
2017-05-20T01:18:42.329Z,99.99
2017-05-20T01:20:04.173Z,99.99
2017-05-20T01:21:26.661Z,99.99
2017-05-20T01:22:48.483Z,99.99
2017-05-20T01:24:10.046Z,99.99
2017-05-20T01:25:31.889Z,99.99
2017-05-20T01:26:53.738Z,99.99
2017-05-20T01:28:16.209Z,99.99
2017-05-20T01:29:38.379Z,99.99
2017-05-20T01:30:59.916Z,99.99
2017-05-20T01:32:21.815Z,99.99
2017-05-20T01:33:43.972Z,99.99
2017-05-20T01:35:05.790Z,99.99
2017-05-20T01:36:27.930Z,99.99
2017-05-20T01:37:50.459Z,99.99
2017-05-20T01:39:12.007Z,99.99
2017-05-20T01:40:34.147Z,99.99
2017-05-20T01:41:55.768Z,99.99
2017-05-20T01:43:17.654Z,99.99
2017-05-20T01:44:39.161Z,99.99
2017-05-20T01:46:01.689Z,99.99
2017-05-20T01:47:23.518Z,99.99
2017-05-20T01:48:45.640Z,99.99
2017-05-20T01:50:07.577Z,99.99
2017-05-20T01:51:29.421Z,99.99
2017-05-20T01:52:51.252Z,99.99
2017-05-20T01:54:13.429Z,99.99
2017-05-20T01:55:34.938Z,99.99
2017-05-20T01:56:56.758Z,99.99
2017-05-20T01:58:18.899Z,99.99
2017-05-20T01:59:41.178Z,99.99
2017-05-20T02:01:03.324Z,99.99
2017-05-20T02:02:25.207Z,99.99
2017-05-20T02:03:47.358Z,99.99
2017-05-20T02:05:10.193Z,99.99
2017-05-20T02:06:32.326Z,99.99
2017-05-20T02:07:54.171Z,99.99
2017-05-20T02:09:16.331Z,99.99
2017-05-20T02:10:38.163Z,99.99
2017-05-20T02:11:59.992Z,99.99
2017-05-20T02:13:22.464Z,99.99
2017-05-20T02:14:44.291Z,99.99
2017-05-20T02:16:06.738Z,99.99
2017-05-20T02:17:28.877Z,99.99
2017-05-20T02:18:50.409Z,99.99
2017-05-20T02:20:12.551Z,99.99
2017-05-20T02:21:35.150Z,99.99
2017-05-20T02:22:56.722Z,99.99
2017-05-20T02:24:18.920Z,99.99
2017-05-20T02:25:41.066Z,99.99
2017-05-20T02:27:02.603Z,99.99
2017-05-20T02:28:25.068Z,99.99
2017-05-20T02:29:46.906Z,99.99
2017-05-20T02:31:08.425Z,99.99
2017-05-20T02:32:30.541Z,99.99
2017-05-20T02:33:52.443Z,99.99
2017-05-20T02:35:14.021Z,99.99
2017-05-20T02:36:35.890Z,99.99
2017-05-20T02:37:57.887Z,99.99
2017-05-20T02:39:19.411Z,99.99
2017-05-20T02:40:40.909Z,99.99
2017-05-20T02:42:02.725Z,99.99
2017-05-20T02:43:24.500Z,99.99
2017-05-20T02:44:46.480Z,99.99
2017-05-20T02:46:08.390Z,99.99
2017-05-20T02:47:30.658Z,99.99
2017-05-20T02:48:52.431Z,99.99
2017-05-20T02:50:13.947Z,99.99
2017-05-20T02:51:36.070Z,99.99
2017-05-20T02:52:57.580Z,99.99
2017-05-20T02:54:19.410Z,99.99
2017-05-20T02:55:41.568Z,99.99
2017-05-20T02:57:03.085Z,99.99
2017-05-20T02:58:24.941Z,99.99
2017-05-20T02:59:46.810Z,99.99
2017-05-20T03:01:08.389Z,99.99
2017-05-20T03:02:30.952Z,99.99
2017-05-20T03:03:52.772Z,99.99
2017-05-20T03:05:15.330Z,99.99
2017-05-20T03:06:37.468Z,99.99
2017-05-20T03:07:59.300Z,99.99
2017-05-20T03:09:20.897Z,99.99
2017-05-20T03:10:42.771Z,99.99
2017-05-20T03:12:04.992Z,99.99
2017-05-20T03:13:27.140Z,99.99
2017-05-20T03:14:49.272Z,99.99
2017-05-20T03:16:11.766Z,99.99
2017-05-20T03:17:33.710Z,99.99
2017-05-20T03:18:54.901Z,99.99
2017-05-20T03:20:16.736Z,99.99
2017-05-20T03:21:39.229Z,99.99
2017-05-20T03:23:01.213Z,99.99
2017-05-20T03:24:23.399Z,99.99
2017-05-20T03:25:45.229Z,99.99
2017-05-20T03:27:07.109Z,99.99
2017-05-20T03:28:28.969Z,99.99
2017-05-20T03:29:50.510Z,99.99
2017-05-20T03:31:12.647Z,99.99
2017-05-20T03:32:34.799Z,99.99
2017-05-20T03:33:56.306Z,99.99
2017-05-20T03:35:17.819Z,99.99
2017-05-20T03:36:40.379Z,99.99
2017-05-20T03:38:01.874Z,99.99
2017-05-20T03:39:23.251Z,99.99
2017-05-20T03:40:44.759Z,99.99
2017-05-20T03:42:06.639Z,99.99
2017-05-20T03:43:29.138Z,99.99
2017-05-20T03:44:51.309Z,99.99
2017-05-20T03:46:12.837Z,99.99
2017-05-20T03:47:34.775Z,99.99
2017-05-20T03:48:57.207Z,99.99
2017-05-20T03:50:19.050Z,99.99
2017-05-20T03:51:41.559Z,99.99
2017-05-20T03:53:03.422Z,99.99
2017-05-20T03:54:25.567Z,99.99
2017-05-20T03:55:47.750Z,99.99
2017-05-20T03:57:09.265Z,99.99
2017-05-20T03:58:31.426Z,99.99
2017-05-20T03:59:53.560Z,99.99
2017-05-20T04:01:15.400Z,99.99
2017-05-20T04:02:36.991Z,99.99
2017-05-20T04:03:59.227Z,99.99
2017-05-20T04:05:21.445Z,99.99
2017-05-20T04:06:43.589Z,99.99
2017-05-20T04:08:05.199Z,99.99
2017-05-20T04:09:27.458Z,99.99
2017-05-20T04:10:49.685Z,99.99
2017-05-20T04:12:11.864Z,99.99
2017-05-20T04:13:33.720Z,99.99
2017-05-20T04:14:55.919Z,99.99
2017-05-20T04:16:17.985Z,99.99
2017-05-20T04:17:39.830Z,99.99
2017-05-20T04:19:02.039Z,99.99
2017-05-20T04:20:24.178Z,99.99
2017-05-20T04:21:46.152Z,99.99
2017-05-20T04:23:08.349Z,99.99
2017-05-20T04:24:29.559Z,99.99
2017-05-20T04:25:51.378Z,99.99
2017-05-20T04:27:13.598Z,99.99
2017-05-20T04:28:35.731Z,99.99
2017-05-20T04:29:58.308Z,99.99
2017-05-20T04:31:19.896Z,99.99
2017-05-20T04:32:42.070Z,99.99
2017-05-20T04:34:03.909Z,99.99
2017-05-20T04:35:25.252Z,99.99
2017-05-20T04:36:47.398Z,99.99
2017-05-20T04:38:08.589Z,99.99
2017-05-20T04:39:30.775Z,99.99
2017-05-20T04:40:52.277Z,99.99
2017-05-20T04:42:14.419Z,99.99
2017-05-20T04:43:37.257Z,99.99
2017-05-20T04:44:59.686Z,99.99
2017-05-20T04:46:20.896Z,99.99
2017-05-20T04:47:42.736Z,99.99
2017-05-20T04:49:05.041Z,99.99
2017-05-20T04:50:26.979Z,99.99
2017-05-20T04:51:49.352Z,99.99
2017-05-20T04:53:11.499Z,99.99
2017-05-20T04:54:33.759Z,99.99
2017-05-20T04:55:55.976Z,99.99
2017-05-20T04:57:17.188Z,99.99
2017-05-20T04:58:39.435Z,99.99
2017-05-20T05:00:01.895Z,99.99
2017-05-20T05:01:24.052Z,99.99
2017-05-20T05:02:45.925Z,99.99
2017-05-20T05:04:07.750Z,99.99
2017-05-20T05:05:29.305Z,99.99
2017-05-20T05:06:51.569Z,99.99
2017-05-20T05:08:13.568Z,99.99
2017-05-20T05:09:35.759Z,99.99
2017-05-20T05:10:57.944Z,99.99
2017-05-20T05:12:20.136Z,99.99
2017-05-20T05:13:42.293Z,99.99
2017-05-20T05:15:04.118Z,99.99
2017-05-20T05:16:26.439Z,99.99
2017-05-20T05:17:48.668Z,99.99
2017-05-20T05:19:10.940Z,99.99
2017-05-20T05:20:32.843Z,99.99
2017-05-20T05:21:55.339Z,99.99
2017-05-20T05:23:16.938Z,99.99
2017-05-20T05:24:38.889Z,99.99
2017-05-20T05:26:00.829Z,99.99
2017-05-20T05:27:22.738Z,99.99
2017-05-20T05:28:45.378Z,99.99
2017-05-20T05:30:07.521Z,99.99
2017-05-20T05:31:29.034Z,99.99
2017-05-20T05:32:51.539Z,99.99
2017-05-20T05:34:13.161Z,99.99
2017-05-20T05:35:35.312Z,99.99
2017-05-20T05:36:57.487Z,99.99
2017-05-20T05:38:20.098Z,99.99
2017-05-20T05:39:41.638Z,99.99
2017-05-20T05:41:03.788Z,99.99
2017-05-20T05:42:25.358Z,99.99
2017-05-20T05:43:47.241Z,99.99
2017-05-20T05:45:09.098Z,99.99
2017-05-20T05:46:31.258Z,99.99
2017-05-20T05:47:53.095Z,99.99
2017-05-20T05:49:15.650Z,99.99
2017-05-20T05:50:37.903Z,99.99
2017-05-20T05:52:00.080Z,99.99
2017-05-20T05:53:22.277Z,99.99
2017-05-20T05:54:44.580Z,99.99
2017-05-20T05:56:06.419Z,99.99
2017-05-20T05:57:28.567Z,99.99
2017-05-20T05:58:50.713Z,99.99
2017-05-20T06:00:13.167Z,99.99
2017-05-20T06:01:35.063Z,99.99
2017-05-20T06:02:57.262Z,99.99
2017-05-20T06:04:19.406Z,99.99
2017-05-20T06:05:42.193Z,99.99
2017-05-20T06:07:04.100Z,99.99
2017-05-20T06:08:26.278Z,99.99
2017-05-20T06:09:48.113Z,99.99
2017-05-20T06:11:10.241Z,99.99
2017-05-20T06:12:32.506Z,99
2017-05-20T06:13:54.060Z,90.23
2017-05-20T06:15:16.214Z,83.97
2017-05-20T06:16:38.703Z,80.27
2017-05-20T06:18:00.218Z,77.17
2017-05-20T06:19:22.173Z,71.95
2017-05-20T06:20:43.160Z,66.88
2017-05-20T06:22:05.068Z,61.41
2017-05-20T06:23:26.966Z,57.98
2017-05-20T06:24:49.558Z,55.4
2017-05-20T06:26:12.131Z,53.8
2017-05-20T06:27:33.997Z,55.68
2017-05-20T06:28:55.529Z,59.73
2017-05-20T06:30:18.139Z,64.18
2017-05-20T06:31:39.403Z,66.97
2017-05-20T06:33:01.749Z,68.77
2017-05-20T06:34:23.967Z,70.82
2017-05-20T06:35:45.806Z,68.7
2017-05-20T06:37:08.324Z,63.82
2017-05-20T06:38:31.089Z,63.5
2017-05-20T06:39:53.010Z,64.53
2017-05-20T06:41:14.861Z,65.85
2017-05-20T06:42:37.043Z,66.49
2017-05-20T06:43:59.435Z,64.92
2017-05-20T06:45:21.691Z,61.19
2017-05-20T06:46:43.537Z,58.25
2017-05-20T06:48:05.769Z,56.93
2017-05-20T06:49:28.702Z,55.99
2017-05-20T06:50:51.189Z,56.63
2017-05-20T06:52:12.997Z,59.38
2017-05-20T06:53:35.533Z,61.35
2017-05-20T06:54:57.709Z,62.48
2017-05-20T06:56:20.149Z,61.03
2017-05-20T06:57:41.371Z,61.09
2017-05-20T06:59:03.220Z,60.51
2017-05-20T07:00:25.920Z,60.16
2017-05-20T07:01:48.104Z,58.93
2017-05-20T07:03:09.948Z,58.39
2017-05-20T07:04:31.974Z,60.68
2017-05-20T07:05:54.437Z,61.71
2017-05-20T07:07:17.037Z,61.25
2017-05-20T07:08:39.188Z,60.48
2017-05-20T07:10:01.046Z,59.45
2017-05-20T07:11:23.827Z,57.45
2017-05-20T07:12:45.432Z,59
2017-05-20T07:14:07.285Z,60.22
2017-05-20T07:15:29.589Z,61.06
2017-05-20T07:16:51.739Z,60.86
2017-05-20T07:18:13.575Z,61.1
2017-05-20T07:19:36.168Z,62.32
2017-05-20T07:20:58.342Z,63.85
2017-05-20T07:22:21.173Z,65.75
2017-05-20T07:23:43.050Z,62.22
2017-05-20T07:25:04.984Z,61.38
2017-05-20T07:26:27.159Z,61.96
2017-05-20T07:27:49.879Z,63.18
2017-05-20T07:29:11.718Z,62.41
2017-05-20T07:30:33.918Z,63.44
2017-05-20T07:31:55.773Z,65.08
2017-05-20T07:33:18.394Z,61.49
2017-05-20T07:34:39.919Z,55.92
2017-05-20T07:36:01.769Z,48.93
2017-05-20T07:37:23.018Z,43.08
2017-05-20T07:38:44.940Z,40.75
2017-05-20T07:40:07.129Z,36.84
2017-05-20T07:41:29.059Z,34.53
2017-05-20T07:42:51.021Z,36.57
2017-05-20T07:44:13.981Z,38.71
2017-05-20T07:45:36.474Z,39.34
2017-05-20T07:46:58.227Z,37.43
2017-05-20T07:48:20.389Z,35.06
2017-05-20T07:49:42.858Z,35.59
2017-05-20T07:51:04.710Z,38.24
2017-05-20T07:52:26.560Z,36.63
2017-05-20T07:53:48.725Z,37.06
2017-05-20T07:55:11.277Z,40.23
2017-05-20T07:56:33.130Z,41.31
2017-05-20T07:57:54.999Z,41.24
2017-05-20T07:59:16.980Z,38.37
2017-05-20T08:00:39.440Z,37.54
2017-05-20T08:02:01.929Z,37.95
2017-05-20T08:03:23.779Z,35.81
2017-05-20T08:04:46.291Z,35.05
2017-05-20T08:06:08.400Z,35.94
2017-05-20T08:07:30.880Z,35.77
2017-05-20T08:08:52.750Z,37.21
2017-05-20T08:10:14.589Z,38.71
2017-05-20T08:11:36.429Z,40.01
2017-05-20T08:12:58.619Z,43.57
2017-05-20T08:14:20.488Z,43.54
2017-05-20T08:15:42.657Z,46.7
2017-05-20T08:17:05.118Z,47.36
2017-05-20T08:18:27.349Z,48.59
2017-05-20T08:19:49.199Z,50.28
2017-05-20T08:21:11.169Z,48.64
2017-05-20T08:22:33.008Z,49.29
2017-05-20T08:23:55.581Z,49.87
2017-05-20T08:25:17.747Z,50.13
2017-05-20T08:26:39.034Z,51.46
2017-05-20T08:28:01.452Z,53.17
2017-05-20T08:29:23.296Z,53.34
2017-05-20T08:30:45.239Z,53.25
2017-05-20T08:32:07.455Z,55.27
2017-05-20T08:33:29.597Z,54.57
2017-05-20T08:34:51.818Z,55.12
2017-05-20T08:36:13.350Z,56.92
2017-05-20T08:37:35.567Z,58.53
2017-05-20T08:38:58.166Z,57.28
2017-05-20T08:40:20.329Z,57.95
2017-05-20T08:41:42.551Z,59.27
2017-05-20T08:43:04.109Z,58.98
2017-05-20T08:44:26.692Z,57.54
2017-05-20T08:45:48.549Z,56.96
2017-05-20T08:47:10.069Z,58.4
2017-05-20T08:48:32.270Z,57.51
2017-05-20T08:49:54.477Z,58.67
2017-05-20T08:51:16.651Z,59.94
2017-05-20T08:52:38.246Z,57.25
2017-05-20T08:54:00.480Z,59.15
2017-05-20T08:55:22.698Z,60.01
2017-05-20T08:56:44.842Z,60.3
2017-05-20T08:58:06.670Z,61.46
2017-05-20T08:59:28.580Z,61.94
2017-05-20T09:00:51.060Z,61.07
2017-05-20T09:02:13.219Z,61.36
2017-05-20T09:03:35.067Z,58.18
2017-05-20T09:04:56.674Z,58.95
2017-05-20T09:06:18.832Z,60.11
2017-05-20T09:07:41.081Z,59.53
2017-05-20T09:09:02.940Z,59.34
2017-05-20T09:10:24.770Z,59.89
2017-05-20T09:11:47.232Z,59.69
2017-05-20T09:13:09.410Z,57.48
2017-05-20T09:14:31.245Z,59.12
2017-05-20T09:15:53.082Z,59.79
2017-05-20T09:17:15.309Z,59.6
2017-05-20T09:18:36.329Z,57.87
2017-05-20T09:19:58.204Z,59.69
2017-05-20T09:21:19.404Z,59.02
2017-05-20T09:22:41.230Z,58.95
2017-05-20T09:24:03.691Z,59.05
2017-05-20T09:25:25.915Z,57.8
2017-05-20T09:26:48.073Z,56.26
2017-05-20T09:28:10.392Z,56.74
2017-05-20T09:29:32.240Z,58.47
2017-05-20T09:30:53.889Z,55.98
2017-05-20T09:32:16.037Z,55.2
2017-05-20T09:33:38.165Z,55.2
2017-05-20T09:35:00.329Z,56.07
2017-05-20T09:36:22.211Z,54.27
2017-05-20T09:37:44.488Z,53.78
2017-05-20T09:39:06.048Z,55.04
2017-05-20T09:40:28.213Z,55.43
2017-05-20T09:41:50.379Z,55.98
2017-05-20T09:43:12.591Z,56.45
2017-05-20T09:44:35.067Z,57.48
2017-05-20T09:45:57.628Z,57.32
2017-05-20T09:47:19.501Z,55.23
2017-05-20T09:48:41.821Z,52.97
2017-05-20T09:50:03.962Z,50.98
2017-05-20T09:51:26.437Z,51.39
2017-05-20T09:52:48.618Z,49.84
2017-05-20T09:54:10.182Z,50.23
2017-05-20T09:55:32.688Z,51.12
2017-05-20T09:56:54.858Z,49
2017-05-20T09:58:16.692Z,49.77
2017-05-20T09:59:38.537Z,48.42
2017-05-20T10:01:01.010Z,49.77
2017-05-20T10:02:22.869Z,48.23
2017-05-20T10:03:44.710Z,50.26
2017-05-20T10:05:06.572Z,50.62
2017-05-20T10:06:28.720Z,51.58
2017-05-20T10:07:49.917Z,50.4
2017-05-20T10:09:11.772Z,51.17
2017-05-20T10:10:33.929Z,51.07
2017-05-20T10:11:56.721Z,50.04
2017-05-20T10:13:18.577Z,50.42
2017-05-20T10:14:40.781Z,48.21
2017-05-20T10:16:02.317Z,50.13
2017-05-20T10:17:24.198Z,51.39
2017-05-20T10:18:46.690Z,51.75
2017-05-20T10:20:08.530Z,50.69
2017-05-20T10:21:30.670Z,51.17
2017-05-20T10:22:52.888Z,52.13
2017-05-20T10:24:15.110Z,51.75
2017-05-20T10:25:37.305Z,51.2
2017-05-20T10:26:59.509Z,51.22
2017-05-20T10:28:21.970Z,52.09
2017-05-20T10:29:44.549Z,51.29
2017-05-20T10:31:06.521Z,51
2017-05-20T10:32:28.438Z,48.79
2017-05-20T10:33:51.362Z,51.58
2017-05-20T10:35:13.831Z,52.83
2017-05-20T10:36:36.320Z,49.94
2017-05-20T10:37:58.879Z,48.59
2017-05-20T10:39:20.976Z,47.27
2017-05-20T10:40:43.143Z,46.33
2017-05-20T10:42:05.333Z,43.91
2017-05-20T10:43:26.842Z,45.38
2017-05-20T10:44:49.442Z,46.42
2017-05-20T10:46:12.027Z,45.09
2017-05-20T10:47:34.531Z,45.96
2017-05-20T10:48:57.018Z,45.86
2017-05-20T10:50:19.850Z,46.34
2017-05-20T10:51:41.402Z,49.15
2017-05-20T10:53:02.931Z,46.08
2017-05-20T10:54:25.492Z,43.08
2017-05-20T10:55:47.976Z,46.44
2017-05-20T10:57:10.151Z,45.09
2017-05-20T10:58:32.622Z,46.54
2017-05-20T10:59:54.569Z,46.83
2017-05-20T11:01:17.021Z,47.81
2017-05-20T11:02:39.210Z,47.81
2017-05-20T11:04:01.126Z,49.65
2017-05-20T11:05:23.272Z,48.39
2017-05-20T11:06:45.489Z,46.3
2017-05-20T11:08:08.163Z,45.91
2017-05-20T11:09:30.039Z,46.56
2017-05-20T11:10:52.199Z,45.86
2017-05-20T11:12:14.351Z,46.42
2017-05-20T11:13:36.508Z,46.51
2017-05-20T11:14:58.420Z,48.42
2017-05-20T11:16:20.280Z,49.77
2017-05-20T11:17:42.596Z,48.11
2017-05-20T11:19:04.770Z,49.05
2017-05-20T11:20:27.296Z,51.07
2017-05-20T11:21:49.469Z,49.63
2017-05-20T11:23:12.209Z,49.82
2017-05-20T11:24:33.759Z,47.72
2017-05-20T11:25:55.674Z,49.15
2017-05-20T11:27:17.974Z,49.89
2017-05-20T11:28:40.426Z,52.69
2017-05-20T11:30:02.910Z,51.5
2017-05-20T11:31:25.379Z,51.92
2017-05-20T11:32:47.595Z,52.33
2017-05-20T11:34:10.244Z,52.13
2017-05-20T11:35:32.219Z,50.81
2017-05-20T11:36:54.723Z,49.55
2017-05-20T11:38:16.569Z,45.92
2017-05-20T11:39:39.360Z,45.92
2017-05-20T11:41:01.218Z,48.33
2017-05-20T11:42:22.435Z,46.78
2017-05-20T11:43:44.428Z,45.17
2017-05-20T11:45:06.630Z,48.35
2017-05-20T11:46:28.787Z,48.18
2017-05-20T11:47:50.347Z,44.22
2017-05-20T11:49:11.883Z,42.58
2017-05-20T11:50:34.334Z,42.21
2017-05-20T11:51:56.850Z,44.15
2017-05-20T11:53:19.018Z,43.93
2017-05-20T11:54:40.990Z,44.82
2017-05-20T11:56:02.839Z,46.56
2017-05-20T11:57:25.039Z,45.89
2017-05-20T11:58:47.199Z,44.43
2017-05-20T12:00:09.078Z,43.85
2017-05-20T12:01:31.675Z,44.24
2017-05-20T12:02:53.294Z,41.35
2017-05-20T12:04:15.515Z,41.54
2017-05-20T12:05:38.076Z,42.7
2017-05-20T12:07:00.538Z,42.33
2017-05-20T12:08:22.710Z,42.33
2017-05-20T12:09:44.889Z,41.83
2017-05-20T12:11:07.080Z,40.96
2017-05-20T12:12:29.923Z,41.94
2017-05-20T12:13:52.520Z,41.08
2017-05-20T12:15:14.400Z,40.77
2017-05-20T12:16:35.660Z,40.96
2017-05-20T12:17:57.881Z,41.44
2017-05-20T12:19:20.054Z,42.6
2017-05-20T12:20:42.409Z,42.14
2017-05-20T12:22:04.249Z,40.78
2017-05-20T12:23:26.417Z,40.4
2017-05-20T12:24:47.987Z,42.04
2017-05-20T12:26:09.890Z,40.61
2017-05-20T12:27:32.366Z,40.52
2017-05-20T12:28:54.878Z,41.29
2017-05-20T12:30:16.819Z,40.25
2017-05-20T12:31:38.676Z,39.37
2017-05-20T12:33:00.571Z,40.17
2017-05-20T12:34:23.088Z,39.59
2017-05-20T12:35:45.279Z,39.32
2017-05-20T12:37:06.910Z,39.12
2017-05-20T12:38:29.173Z,39.03
2017-05-20T12:39:51.292Z,39.04
2017-05-20T12:41:13.247Z,37.61
2017-05-20T12:42:35.523Z,36.76
2017-05-20T12:43:57.723Z,37.65
2017-05-20T12:45:19.884Z,38.4
2017-05-20T12:46:42.050Z,40.23
2017-05-20T12:48:03.910Z,40.59
2017-05-20T12:49:26.419Z,42.8
2017-05-20T12:50:48.856Z,43.07
2017-05-20T12:52:10.715Z,43.63
2017-05-20T12:53:32.580Z,41.77
2017-05-20T12:54:54.750Z,43.41
2017-05-20T12:56:17.283Z,45.04
2017-05-20T12:57:39.582Z,44.38
2017-05-20T12:59:01.750Z,43.23
2017-05-20T13:00:24.031Z,43.51
2017-05-20T13:01:46.477Z,42.91
2017-05-20T13:03:08.729Z,43.32
2017-05-20T13:04:30.654Z,42.72
2017-05-20T13:05:52.531Z,43.95
2017-05-20T13:07:14.961Z,45.59
2017-05-20T13:08:36.840Z,43.64
2017-05-20T13:09:58.991Z,44.32
2017-05-20T13:11:20.836Z,45.11
2017-05-20T13:12:42.938Z,45.5
2017-05-20T13:14:05.453Z,45.01
2017-05-20T13:15:27.628Z,44.24
2017-05-20T13:16:49.784Z,44.24
2017-05-20T13:18:12.247Z,43.47
2017-05-20T13:19:34.150Z,42.89
2017-05-20T13:20:56.689Z,43.59
2017-05-20T13:22:19.197Z,43.01
2017-05-20T13:23:42.197Z,42.55
2017-05-20T13:25:04.466Z,41.97
2017-05-20T13:26:26.638Z,42.16
2017-05-20T13:27:48.269Z,41.09
2017-05-20T13:29:10.694Z,42.25
2017-05-20T13:30:32.880Z,40.52
2017-05-20T13:31:55.048Z,40.59
2017-05-20T13:33:17.222Z,43.3
2017-05-20T13:34:39.529Z,44.26
2017-05-20T13:36:01.732Z,43.98
2017-05-20T13:37:23.590Z,43.49
2017-05-20T13:38:45.493Z,44.34
2017-05-20T13:40:08.053Z,43.47
2017-05-20T13:41:29.599Z,43.95
2017-05-20T13:42:51.792Z,44.34
2017-05-20T13:44:13.651Z,45.01
2017-05-20T13:45:36.238Z,43.28
2017-05-20T13:46:58.830Z,42.33
2017-05-20T13:48:21.166Z,42.5
2017-05-20T13:49:43.147Z,41.35
2017-05-20T13:51:05.367Z,41.13
2017-05-20T13:52:27.242Z,40.65
2017-05-20T13:53:48.788Z,41.52
2017-05-20T13:55:10.646Z,40.26
2017-05-20T13:56:33.450Z,41.02
2017-05-20T13:57:56.019Z,41.88
2017-05-20T13:59:18.541Z,42.63
2017-05-20T14:00:40.415Z,40.22
2017-05-20T14:02:02.918Z,42.05
2017-05-20T14:03:25.438Z,42.83
2017-05-20T14:04:47.627Z,42.63
2017-05-20T14:06:09.518Z,41.02
2017-05-20T14:07:31.371Z,39.57
2017-05-20T14:08:54.008Z,40.45
2017-05-20T14:10:16.218Z,40.45
2017-05-20T14:11:38.078Z,42.18
2017-05-20T14:13:00.799Z,39.87
2017-05-20T14:14:23.387Z,42.18
2017-05-20T14:15:44.929Z,43.54
2017-05-20T14:17:07.416Z,40.94
2017-05-20T14:18:30.250Z,39.78
2017-05-20T14:19:52.762Z,42.77
2017-05-20T14:21:14.628Z,42.68
2017-05-20T14:22:36.146Z,42.58
2017-05-20T14:23:58.658Z,43.45
2017-05-20T14:25:21.167Z,43.66
2017-05-20T14:26:43.007Z,45.59
2017-05-20T14:28:05.174Z,47
2017-05-20T14:29:27.751Z,48.81
2017-05-20T14:30:49.731Z,48.18
2017-05-20T14:32:11.949Z,48.28
2017-05-20T14:33:33.179Z,50.01
2017-05-20T14:34:55.814Z,48.95
2017-05-20T14:36:18.158Z,51.07
2017-05-20T14:37:39.685Z,50.21
2017-05-20T14:39:01.271Z,50.69
2017-05-20T14:40:23.726Z,50.11
2017-05-20T14:41:45.579Z,52.42
2017-05-20T14:43:07.746Z,53.29
2017-05-20T14:44:29.360Z,50.21
2017-05-20T14:45:51.951Z,49.43
2017-05-20T14:47:13.988Z,53.48
2017-05-20T14:48:36.233Z,53.94
2017-05-20T14:49:58.408Z,53.96
2017-05-20T14:51:20.558Z,53.09
2017-05-20T14:52:42.517Z,51.56
2017-05-20T14:54:04.780Z,52.04
2017-05-20T14:55:26.957Z,52.61
2017-05-20T14:56:49.179Z,53.96
2017-05-20T14:58:11.350Z,52.13
2017-05-20T14:59:33.855Z,52.59
2017-05-20T15:00:56.379Z,53.17
2017-05-20T15:02:19.118Z,53.39
2017-05-20T15:03:41.439Z,52.81
2017-05-20T15:05:03.317Z,53.09
2017-05-20T15:06:25.158Z,52.04
2017-05-20T15:07:46.952Z,51.36
2017-05-20T15:09:09.191Z,50.3
2017-05-20T15:10:31.530Z,47.8
2017-05-20T15:11:53.376Z,49.79
2017-05-20T15:13:15.586Z,51.56
2017-05-20T15:14:37.891Z,50.69
2017-05-20T15:16:00.402Z,52.13
2017-05-20T15:17:22.269Z,50.01
2017-05-20T15:18:44.471Z,50.11
2017-05-20T15:20:06.766Z,50.69
2017-05-20T15:21:29.049Z,51.07
2017-05-20T15:22:51.213Z,51.56
2017-05-20T15:24:13.424Z,50.21
2017-05-20T15:25:35.629Z,49.91
2017-05-20T15:26:57.469Z,50.78
2017-05-20T15:28:19.760Z,50.21
2017-05-20T15:29:42.619Z,51.07
2017-05-20T15:31:04.444Z,51.75
2017-05-20T15:32:26.658Z,50.11
2017-05-20T15:33:48.798Z,51
2017-05-20T15:35:10.879Z,50.04
2017-05-20T15:36:33.054Z,49
2017-05-20T15:37:55.219Z,50.06
2017-05-20T15:39:17.364Z,49.07
2017-05-20T15:40:39.948Z,50.71
2017-05-20T15:42:02.418Z,52.55
2017-05-20T15:43:23.627Z,51.75
2017-05-20T15:44:45.178Z,51.56
2017-05-20T15:46:07.709Z,51.43
2017-05-20T15:47:30.253Z,52.2
2017-05-20T15:48:51.790Z,52.78
2017-05-20T15:50:13.944Z,52.2
2017-05-20T15:51:35.464Z,49.91
2017-05-20T15:52:57.649Z,50.21
2017-05-20T15:54:19.900Z,50.69
2017-05-20T15:55:41.409Z,49.34
2017-05-20T15:57:03.912Z,48.66
2017-05-20T15:58:25.768Z,47.12
2017-05-20T15:59:48.279Z,49.73
2017-05-20T16:01:10.208Z,48.47
2017-05-20T16:02:32.495Z,49.91
2017-05-20T16:03:54.768Z,51.72
2017-05-20T16:05:16.998Z,53.53
2017-05-20T16:06:39.477Z,54.78
2017-05-20T16:08:01.359Z,55.45
2017-05-20T16:09:23.350Z,56.2
2017-05-20T16:10:44.888Z,55.04
2017-05-20T16:12:07.044Z,55.9
2017-05-20T16:13:29.541Z,54.14
2017-05-20T16:14:52.038Z,54.14
2017-05-20T16:16:13.998Z,56.74
2017-05-20T16:17:35.886Z,58.28
2017-05-20T16:18:57.830Z,58.15
2017-05-20T16:20:20.017Z,53.38
2017-05-20T16:21:41.938Z,54.89
2017-05-20T16:23:04.159Z,57.48
2017-05-20T16:24:26.949Z,57.7
2017-05-20T16:25:49.438Z,58.28
2017-05-20T16:27:11.629Z,57.8
2017-05-20T16:28:33.798Z,54.24
2017-05-20T16:29:56.598Z,53.96
2017-05-20T16:31:18.822Z,55.78
2017-05-20T16:32:41.515Z,56.91
2017-05-20T16:34:03.408Z,59.12
2017-05-20T16:35:25.608Z,59.12
2017-05-20T16:36:48.113Z,58.45
2017-05-20T16:38:10.333Z,61.97
2017-05-20T16:39:32.597Z,63.79
2017-05-20T16:40:55.090Z,64.95
2017-05-20T16:42:17.633Z,64.47
2017-05-20T16:43:40.231Z,63.06
2017-05-20T16:45:02.394Z,62.68
2017-05-20T16:46:24.577Z,61.55
2017-05-20T16:47:46.894Z,62.1
2017-05-20T16:49:10.368Z,62.87
2017-05-20T16:50:32.529Z,63.73
2017-05-20T16:51:54.292Z,61.23
2017-05-20T16:53:16.129Z,61.33
2017-05-20T16:54:37.988Z,61.3
2017-05-20T16:55:59.943Z,64.76
2017-05-20T16:57:22.758Z,63.6
2017-05-20T16:58:44.619Z,62.07
2017-05-20T17:00:06.800Z,62.74
2017-05-20T17:01:29.415Z,62.55
2017-05-20T17:02:52.233Z,62.9
2017-05-20T17:04:15.118Z,62.42
2017-05-20T17:05:37.681Z,63.19
2017-05-20T17:06:59.976Z,61.58
2017-05-20T17:08:22.777Z,63.02
2017-05-20T17:09:45.291Z,62.74
2017-05-20T17:11:07.844Z,61.87
2017-05-20T17:12:31.050Z,62.74
2017-05-20T17:13:54.890Z,62.07
2017-05-20T17:15:16.950Z,62.64
2017-05-20T17:16:39.222Z,61.3
2017-05-20T17:18:01.647Z,61.36
2017-05-20T17:19:24.131Z,62.84
2017-05-20T17:20:46.682Z,62.42
2017-05-20T17:22:08.640Z,64.82
2017-05-20T17:23:31.160Z,61.94
2017-05-20T17:24:53.998Z,61.94
2017-05-20T17:26:15.864Z,63.19
2017-05-20T17:27:38.139Z,62.61
2017-05-20T17:29:00.369Z,62.32
2017-05-20T17:30:22.915Z,61.75
2017-05-20T17:31:45.105Z,61.55
2017-05-20T17:33:07.711Z,60.69
2017-05-20T17:34:29.569Z,61.17
2017-05-20T17:35:52.428Z,61.91
2017-05-20T17:37:14.606Z,61.33
2017-05-20T17:38:36.440Z,60.66
2017-05-20T17:39:58.295Z,60.95